createdAt,value
2018-09-05T00:00:11.211Z,94.94
2018-09-05T00:02:40.192Z,94.87
2018-09-05T00:05:09.464Z,94.84
2018-09-05T00:07:38.279Z,95.00
2018-09-05T00:10:07.073Z,95.53
2018-09-05T00:12:35.925Z,95.73
2018-09-05T00:15:04.804Z,95.74
2018-09-05T00:17:33.588Z,95.12
2018-09-05T00:20:02.377Z,94.92
2018-09-05T00:22:31.176Z,96.30
2018-09-05T00:24:59.944Z,96.03
2018-09-05T00:27:28.708Z,95.46
2018-09-05T00:29:57.524Z,96.23
2018-09-05T00:32:26.387Z,96.23
2018-09-05T00:34:55.211Z,95.95
2018-09-05T00:37:24.005Z,95.34
2018-09-05T00:39:52.788Z,94.85
2018-09-05T00:42:21.574Z,94.64
2018-09-05T00:44:50.366Z,94.29
2018-09-05T00:47:19.135Z,94.51
2018-09-05T00:49:47.897Z,96.06
2018-09-05T00:52:16.673Z,95.24
2018-09-05T00:54:45.529Z,94.49
2018-09-05T00:57:14.329Z,94.70
2018-09-05T00:59:43.084Z,94.56
2018-09-05T01:02:11.935Z,94.55
2018-09-05T01:04:40.718Z,94.95
2018-09-05T01:07:20.402Z,95.64
2018-09-05T01:09:49.160Z,96.11
2018-09-05T01:12:18.976Z,96.08
2018-09-05T01:14:47.809Z,96.23
2018-09-05T01:17:16.572Z,96.34
2018-09-05T01:19:45.372Z,97.46
2018-09-05T01:22:14.140Z,97.45
2018-09-05T01:24:42.997Z,96.62
2018-09-05T01:27:12.117Z,96.28
2018-09-05T01:29:42.113Z,96.20
2018-09-05T01:32:11.724Z,95.86
2018-09-05T01:34:41.337Z,95.97
2018-09-05T01:37:10.657Z,96.42
2018-09-05T01:39:39.469Z,96.23
2018-09-05T01:42:09.239Z,95.63
2018-09-05T01:44:38.100Z,95.67
2018-09-05T01:47:07.017Z,96.34
2018-09-05T01:49:35.848Z,96.31
2018-09-05T01:52:05.149Z,96.72
2018-09-05T01:54:34.419Z,95.76
2018-09-05T01:57:03.381Z,96.47
2018-09-05T01:59:32.339Z,96.29
2018-09-05T02:02:01.426Z,97.62
2018-09-05T02:04:30.578Z,97.90
2018-09-05T02:06:59.652Z,97.54
2018-09-05T02:09:28.796Z,96.66
2018-09-05T02:11:57.800Z,96.38
2018-09-05T02:14:26.816Z,96.60
2018-09-05T02:16:56.078Z,97.24
2018-09-05T02:19:25.332Z,98.44
2018-09-05T02:21:54.321Z,98.01
2018-09-05T02:24:23.254Z,98.26
2018-09-05T02:26:52.312Z,97.98
2018-09-05T02:29:21.039Z,97.82
2018-09-05T02:31:49.800Z,97.63
2018-09-05T02:34:18.612Z,97.45
2018-09-05T02:36:47.380Z,97.21
2018-09-05T02:39:16.156Z,97.18
2018-09-05T02:41:44.935Z,97.41
2018-09-05T02:44:20.362Z,98.04
2018-09-05T02:46:49.254Z,98.97
2018-09-05T02:49:18.089Z,99.00
2018-09-05T02:51:47.406Z,98.35
2018-09-05T02:54:16.247Z,98.21
2018-09-05T02:56:44.996Z,98.55
2018-09-05T02:59:13.759Z,98.31
2018-09-05T03:01:42.524Z,98.64
2018-09-05T03:04:11.272Z,98.72
2018-09-05T03:06:40.052Z,100.00
2018-09-05T03:09:09.451Z,99.76
2018-09-05T03:11:38.247Z,99.48
2018-09-05T03:14:07.128Z,99.70
2018-09-05T03:16:35.896Z,99.18
2018-09-05T03:19:04.697Z,99.17
2018-09-05T03:21:33.455Z,99.06
2018-09-05T03:24:02.265Z,99.55
2018-09-05T03:26:31.071Z,99.93
2018-09-05T03:28:59.834Z,100.00
2018-09-05T03:31:28.612Z,99.81
2018-09-05T03:33:57.368Z,99.29
2018-09-05T03:36:26.163Z,99.51
2018-09-05T03:38:54.904Z,99.76
2018-09-05T03:41:23.680Z,99.43
2018-09-05T03:43:52.441Z,99.81
2018-09-05T03:46:21.209Z,99.80
2018-09-05T03:48:49.996Z,99.44
2018-09-05T03:51:19.088Z,99.32
2018-09-05T03:53:49.581Z,99.75
2018-09-05T03:56:19.626Z,100.00
2018-09-05T03:58:50.228Z,100.00
2018-09-05T04:01:20.486Z,100.00
2018-09-05T04:03:50.883Z,100.00
2018-09-05T04:06:20.513Z,99.76
2018-09-05T04:08:52.510Z,100.00
2018-09-05T04:11:22.892Z,100.00
2018-09-05T04:13:52.717Z,100.00
2018-09-05T04:16:23.227Z,99.80
2018-09-05T04:18:52.786Z,99.95
2018-09-05T04:21:21.568Z,99.55
2018-09-05T04:23:50.341Z,100.00
2018-09-05T04:26:19.909Z,100.00
2018-09-05T04:28:48.679Z,100.00
2018-09-05T04:31:17.476Z,100.00
2018-09-05T04:33:46.517Z,100.00
2018-09-05T04:36:15.920Z,100.00
2018-09-05T04:38:44.773Z,100.00
2018-09-05T04:41:13.604Z,99.96
2018-09-05T04:43:43.754Z,100.00
2018-09-05T04:46:12.543Z,99.94
2018-09-05T04:48:41.452Z,100.00
2018-09-05T04:51:10.311Z,100.00
2018-09-05T04:53:39.162Z,100.00
2018-09-05T04:56:07.980Z,100.00
2018-09-05T04:58:37.262Z,100.00
2018-09-05T05:01:06.360Z,100.00
2018-09-05T05:03:35.747Z,100.00
2018-09-05T05:06:04.695Z,100.00
2018-09-05T05:08:33.543Z,99.94
2018-09-05T05:11:02.344Z,100.00
2018-09-05T05:13:31.159Z,100.00
2018-09-05T05:16:00.121Z,100.00
2018-09-05T05:18:28.923Z,100.00
2018-09-05T05:20:57.943Z,100.00
2018-09-05T05:23:27.016Z,100.00
2018-09-05T05:25:55.817Z,100.00
2018-09-05T05:28:24.865Z,100.00
2018-09-05T05:30:53.992Z,100.00
2018-09-05T05:33:22.803Z,100.00
2018-09-05T05:35:51.666Z,99.98
2018-09-05T05:38:20.469Z,100.00
2018-09-05T05:40:49.244Z,99.76
2018-09-05T05:43:18.065Z,99.14
2018-09-05T05:45:46.889Z,98.47
2018-09-05T05:48:15.691Z,98.17
2018-09-05T05:50:44.500Z,98.59
2018-09-05T05:53:13.257Z,99.33
2018-09-05T05:55:42.045Z,99.09
2018-09-05T05:58:10.806Z,99.16
2018-09-05T06:00:39.569Z,98.84
2018-09-05T06:03:08.366Z,98.01
2018-09-05T06:05:37.137Z,97.33
2018-09-05T06:08:05.928Z,96.65
2018-09-05T06:10:34.692Z,96.49
2018-09-05T06:13:03.474Z,95.85
2018-09-05T06:15:32.342Z,95.39
2018-09-05T06:18:01.113Z,94.94
2018-09-05T06:20:29.861Z,94.64
2018-09-05T06:22:58.646Z,94.87
2018-09-05T06:25:27.424Z,95.10
2018-09-05T06:27:56.250Z,95.62
2018-09-05T06:30:25.108Z,95.80
2018-09-05T06:32:53.910Z,96.31
2018-09-05T06:35:22.704Z,96.25
2018-09-05T06:37:51.483Z,95.94
2018-09-05T06:40:20.306Z,95.48
2018-09-05T06:42:49.090Z,94.95
2018-09-05T06:45:17.907Z,94.28
2018-09-05T06:47:46.676Z,93.83
2018-09-05T06:50:15.455Z,93.39
2018-09-05T06:52:44.250Z,91.36
2018-09-05T06:55:13.032Z,87.19
2018-09-05T06:57:41.849Z,84.35
2018-09-05T07:00:11.419Z,80.04
2018-09-05T07:02:40.269Z,78.32
2018-09-05T07:05:15.428Z,76.50
2018-09-05T07:07:44.271Z,72.95
2018-09-05T07:10:13.084Z,70.72
2018-09-05T07:12:41.858Z,70.03
2018-09-05T07:15:10.683Z,70.23
2018-09-05T07:17:39.496Z,68.29
2018-09-05T07:20:08.297Z,66.55
2018-09-05T07:22:37.097Z,68.73
2018-09-05T07:25:06.389Z,67.54
2018-09-05T07:27:35.236Z,64.69
2018-09-05T07:30:04.099Z,62.90
2018-09-05T07:32:32.939Z,62.75
2018-09-05T07:35:01.716Z,62.18
2018-09-05T07:37:30.497Z,61.80
2018-09-05T07:39:59.813Z,66.02
2018-09-05T07:42:28.585Z,68.54
2018-09-05T07:44:57.364Z,68.20
2018-09-05T07:47:26.216Z,67.29
2018-09-05T07:49:55.020Z,67.17
2018-09-05T07:52:23.797Z,66.54
2018-09-05T07:54:52.645Z,65.15
2018-09-05T07:57:21.633Z,64.04
2018-09-05T07:59:50.346Z,64.67
2018-09-05T08:02:19.140Z,64.07
2018-09-05T08:04:47.974Z,62.15
2018-09-05T08:07:16.769Z,64.18
2018-09-05T08:09:45.530Z,65.68
2018-09-05T08:12:47.692Z,65.35
2018-09-05T08:15:16.449Z,64.64
2018-09-05T08:17:45.308Z,64.23
2018-09-05T08:20:14.093Z,64.23
2018-09-05T08:22:42.928Z,62.90
2018-09-05T08:25:11.693Z,60.94
2018-09-05T08:27:40.452Z,61.81
2018-09-05T08:30:09.296Z,63.95
2018-09-05T08:32:38.046Z,65.40
2018-09-05T08:35:07.210Z,64.51
2018-09-05T08:37:36.133Z,64.22
2018-09-05T08:40:04.868Z,64.97
2018-09-05T08:42:35.118Z,63.89
2018-09-05T08:45:04.626Z,65.64
2018-09-05T08:47:33.325Z,66.41
2018-09-05T08:50:02.504Z,66.42
2018-09-05T08:52:31.389Z,64.99
2018-09-05T08:55:00.558Z,66.32
2018-09-05T08:57:29.338Z,65.76
2018-09-05T08:59:58.147Z,66.43
2018-09-05T09:02:26.948Z,65.28
2018-09-05T09:04:55.852Z,64.21
2018-09-05T09:07:24.604Z,65.52
2018-09-05T09:09:53.461Z,64.60
2018-09-05T09:12:22.349Z,65.81
2018-09-05T09:14:51.109Z,63.38
2018-09-05T09:17:19.881Z,63.54
2018-09-05T09:19:48.671Z,64.69
2018-09-05T09:22:17.450Z,63.34
2018-09-05T09:24:46.311Z,60.90
2018-09-05T09:27:15.168Z,62.63
2018-09-05T09:29:43.967Z,61.07
2018-09-05T09:32:12.738Z,63.23
2018-09-05T09:34:41.644Z,62.74
2018-09-05T09:37:10.440Z,60.94
2018-09-05T09:39:39.205Z,62.25
2018-09-05T09:42:08.441Z,59.41
2018-09-05T09:44:37.215Z,58.48
2018-09-05T09:47:06.039Z,59.18
2018-09-05T09:49:34.822Z,57.42
2018-09-05T09:52:08.942Z,57.10
2018-09-05T09:54:37.813Z,57.47
2018-09-05T09:57:06.613Z,55.79
2018-09-05T09:59:35.404Z,58.65
2018-09-05T10:02:09.384Z,59.55
2018-09-05T10:04:43.239Z,56.76
2018-09-05T10:07:17.156Z,58.34
2018-09-05T10:09:51.114Z,56.67
2018-09-05T10:12:25.001Z,58.52
2018-09-05T10:15:01.134Z,55.98
2018-09-05T10:17:31.164Z,55.10
2018-09-05T10:20:00.793Z,56.19
2018-09-05T10:22:30.128Z,54.81
2018-09-05T10:24:59.029Z,54.10
2018-09-05T10:27:28.506Z,54.02
2018-09-05T10:29:57.676Z,53.91
2018-09-05T10:32:26.710Z,55.94
2018-09-05T10:34:56.432Z,56.48
2018-09-05T10:37:25.396Z,57.51
2018-09-05T10:39:54.218Z,52.55
2018-09-05T10:42:22.990Z,51.40
2018-09-05T10:44:51.757Z,51.49
2018-09-05T10:47:20.533Z,53.63
2018-09-05T10:49:49.291Z,54.17
2018-09-05T10:52:18.087Z,55.50
2018-09-05T10:54:46.875Z,53.15
2018-09-05T10:57:15.680Z,56.33
2018-09-05T10:59:44.470Z,57.87
2018-09-05T11:02:13.298Z,57.30
2018-09-05T11:04:42.057Z,56.02
2018-09-05T11:07:10.830Z,53.73
2018-09-05T11:09:39.594Z,54.49
2018-09-05T11:12:08.365Z,54.13
2018-09-05T11:14:37.124Z,51.98
2018-09-05T11:17:05.946Z,49.58
2018-09-05T11:19:34.710Z,51.48
2018-09-05T11:22:03.511Z,49.38
2018-09-05T11:24:32.349Z,50.39
2018-09-05T11:27:01.149Z,50.57
2018-09-05T11:29:29.924Z,48.90
2018-09-05T11:31:58.732Z,47.87
2018-09-05T11:34:27.502Z,47.19
2018-09-05T11:36:56.333Z,48.75
2018-09-05T11:39:25.125Z,49.16
2018-09-05T11:41:53.913Z,49.68
2018-09-05T11:44:22.788Z,48.94
2018-09-05T11:46:51.567Z,49.44
2018-09-05T11:49:20.356Z,47.66
2018-09-05T11:51:49.130Z,47.95
2018-09-05T11:54:17.897Z,46.02
2018-09-05T11:56:46.669Z,44.61
2018-09-05T11:59:15.484Z,45.22
2018-09-05T12:01:44.313Z,47.40
2018-09-05T12:04:13.084Z,47.62
2018-09-05T12:06:41.936Z,49.47
2018-09-05T12:09:11.769Z,49.64
2018-09-05T12:11:40.610Z,46.56
2018-09-05T12:14:10.059Z,44.33
2018-09-05T12:16:39.119Z,44.79
2018-09-05T12:19:08.348Z,45.67
2018-09-05T12:21:37.126Z,47.18
2018-09-05T12:24:05.912Z,45.72
2018-09-05T12:26:35.029Z,47.12
2018-09-05T12:29:06.433Z,47.03
2018-09-05T12:31:35.235Z,47.63
2018-09-05T12:34:04.009Z,44.73
2018-09-05T12:36:32.777Z,46.13
2018-09-05T12:39:01.568Z,43.68
2018-09-05T12:41:30.438Z,46.02
2018-09-05T12:43:59.204Z,44.92
2018-09-05T12:46:27.972Z,43.62
2018-09-05T12:48:56.713Z,46.63
2018-09-05T12:51:25.553Z,45.19
2018-09-05T12:53:54.349Z,45.65
2018-09-05T12:56:23.142Z,45.81
2018-09-05T12:58:51.904Z,45.84
2018-09-05T13:01:20.749Z,44.13
2018-09-05T13:03:49.659Z,44.33
2018-09-05T13:06:18.469Z,45.08
2018-09-05T13:08:47.238Z,47.62
2018-09-05T13:11:16.079Z,49.07
2018-09-05T13:13:44.826Z,49.57
2018-09-05T13:16:13.592Z,49.58
2018-09-05T13:18:42.419Z,51.01
2018-09-05T13:21:11.202Z,50.62
2018-09-05T13:23:39.957Z,50.20
2018-09-05T13:26:08.739Z,49.87
2018-09-05T13:28:37.501Z,49.78
2018-09-05T13:31:06.322Z,48.29
2018-09-05T13:33:35.113Z,48.90
2018-09-05T13:36:04.108Z,45.30
2018-09-05T13:38:32.959Z,45.34
2018-09-05T13:41:01.721Z,47.85
2018-09-05T13:43:30.492Z,46.09
2018-09-05T13:45:59.257Z,46.74
2018-09-05T13:48:28.089Z,46.34
2018-09-05T13:50:56.851Z,45.14
2018-09-05T13:53:25.608Z,45.90
2018-09-05T13:55:54.393Z,46.16
2018-09-05T13:58:23.248Z,42.65
2018-09-05T14:00:52.073Z,42.91
2018-09-05T14:03:20.856Z,44.85
2018-09-05T14:05:49.624Z,42.81
2018-09-05T14:08:18.418Z,44.40
2018-09-05T14:10:47.219Z,43.49
2018-09-05T14:13:16.021Z,44.66
2018-09-05T14:15:44.795Z,44.43
2018-09-05T14:18:13.559Z,43.78
2018-09-05T14:20:42.464Z,43.17
2018-09-05T14:23:11.181Z,43.50
2018-09-05T14:25:39.943Z,43.01
2018-09-05T14:28:09.014Z,46.93
2018-09-05T14:30:37.897Z,47.14
2018-09-05T14:33:06.739Z,45.96
2018-09-05T14:35:35.493Z,46.82
2018-09-05T14:38:04.357Z,45.95
2018-09-05T14:40:33.107Z,43.78
2018-09-05T14:43:01.893Z,45.56
2018-09-05T14:45:30.668Z,41.99
2018-09-05T14:47:59.428Z,41.03
2018-09-05T14:50:28.218Z,43.01
2018-09-05T14:52:56.973Z,44.50
2018-09-05T14:55:25.729Z,42.81
2018-09-05T14:57:54.480Z,43.79
2018-09-05T15:00:23.266Z,43.36
2018-09-05T15:02:52.022Z,43.73
2018-09-05T15:05:20.806Z,45.62
2018-09-05T15:07:50.799Z,46.44
2018-09-05T15:10:19.597Z,45.20
2018-09-05T15:12:48.366Z,45.97
2018-09-05T15:15:17.695Z,46.44
2018-09-05T15:17:46.552Z,46.65
2018-09-05T15:20:15.269Z,48.92
2018-09-05T15:22:44.036Z,48.75
2018-09-05T15:25:12.793Z,50.23
2018-09-05T15:27:41.594Z,51.13
2018-09-05T15:30:10.652Z,53.05
2018-09-05T15:32:39.442Z,53.20
2018-09-05T15:35:08.244Z,52.65
2018-09-05T15:37:37.005Z,54.58
2018-09-05T15:40:06.145Z,55.07
2018-09-05T15:42:34.940Z,54.99
2018-09-05T15:45:03.721Z,56.13
2018-09-05T15:47:32.487Z,56.62
2018-09-05T15:50:01.287Z,57.41
2018-09-05T15:52:30.073Z,57.45
2018-09-05T15:54:58.821Z,57.23
2018-09-05T15:57:27.715Z,57.80
2018-09-05T15:59:56.630Z,56.83
2018-09-05T16:02:25.388Z,54.68
2018-09-05T16:04:54.133Z,54.34
2018-09-05T16:07:22.893Z,52.14
2018-09-05T16:09:51.665Z,51.90
2018-09-05T16:12:20.447Z,51.43
2018-09-05T16:14:49.213Z,51.92
2018-09-05T16:17:18.099Z,50.74
2018-09-05T16:19:46.849Z,51.40
2018-09-05T16:22:15.621Z,51.75
2018-09-05T16:24:44.381Z,50.67
2018-09-05T16:27:13.124Z,51.49
2018-09-05T16:29:41.928Z,49.99
2018-09-05T16:32:10.681Z,51.13
2018-09-05T16:34:39.464Z,50.76
2018-09-05T16:37:08.230Z,50.86
2018-09-05T16:39:37.272Z,51.60
2018-09-05T16:42:06.282Z,51.47
2018-09-05T16:44:35.256Z,50.75
2018-09-05T16:47:05.257Z,53.44
2018-09-05T16:49:34.199Z,53.70
2018-09-05T16:52:02.972Z,52.71
2018-09-05T16:54:31.927Z,52.00
2018-09-05T16:57:00.787Z,52.01
2018-09-05T16:59:29.625Z,52.52
2018-09-05T17:01:58.590Z,54.56
2018-09-05T17:04:27.407Z,54.37
2018-09-05T17:06:56.717Z,56.62
2018-09-05T17:09:25.888Z,54.82
2018-09-05T17:11:55.149Z,57.96
2018-09-05T17:14:23.936Z,59.03
2018-09-05T17:16:52.767Z,58.40
2018-09-05T17:19:21.526Z,59.47
2018-09-05T17:21:52.206Z,60.96
2018-09-05T17:24:21.058Z,62.34
2018-09-05T17:26:49.908Z,59.43
2018-09-05T17:29:18.852Z,61.85
2018-09-05T17:31:47.704Z,60.18
2018-09-05T17:34:16.532Z,62.32
2018-09-05T17:36:45.558Z,62.96
2018-09-05T17:39:14.344Z,64.46
2018-09-05T17:41:43.421Z,60.89
2018-09-05T17:44:12.604Z,65.08
2018-09-05T17:46:41.392Z,66.08
2018-09-05T17:49:10.619Z,66.20
2018-09-05T17:51:39.643Z,65.30
2018-09-05T17:54:08.427Z,68.34
2018-09-05T17:56:37.253Z,67.26
2018-09-05T17:59:06.421Z,67.54
2018-09-05T18:01:35.381Z,68.28
2018-09-05T18:04:10.601Z,67.22
2018-09-05T18:06:39.364Z,69.51
2018-09-05T18:09:09.749Z,69.21
2018-09-05T18:11:38.630Z,71.12
2018-09-05T18:14:07.497Z,71.57
2018-09-05T18:16:36.371Z,70.83
2018-09-05T18:19:05.207Z,71.12
2018-09-05T18:21:35.530Z,72.69
2018-09-05T18:24:04.637Z,73.11
2018-09-05T18:26:33.627Z,73.92
2018-09-05T18:29:02.640Z,73.67
2018-09-05T18:31:31.644Z,74.40
2018-09-05T18:34:00.413Z,73.29
2018-09-05T18:36:29.428Z,73.61
2018-09-05T18:38:58.209Z,72.61
2018-09-05T18:41:27.058Z,70.91
2018-09-05T18:43:55.846Z,72.21
2018-09-05T18:46:24.608Z,72.51
2018-09-05T18:48:53.396Z,69.90
2018-09-05T18:51:22.167Z,69.78
2018-09-05T18:53:50.961Z,70.93
2018-09-05T18:56:19.844Z,73.24
2018-09-05T18:58:48.699Z,73.95
2018-09-05T19:01:17.520Z,73.99
2018-09-05T19:03:46.389Z,74.82
2018-09-05T19:06:15.177Z,75.20
2018-09-05T19:08:44.845Z,76.34
2018-09-05T19:11:14.616Z,75.04
2018-09-05T19:13:43.382Z,77.05
2018-09-05T19:16:12.221Z,76.84
2018-09-05T19:18:41.132Z,78.15
2018-09-05T19:21:09.908Z,77.72
2018-09-05T19:23:38.708Z,78.00
2018-09-05T19:26:09.382Z,77.97
2018-09-05T19:28:38.537Z,77.94
2018-09-05T19:31:07.391Z,76.16
2018-09-05T19:33:36.456Z,76.79
2018-09-05T19:36:05.655Z,78.62
2018-09-05T19:38:34.438Z,79.04
2018-09-05T19:41:03.235Z,77.62
2018-09-05T19:43:32.055Z,78.51
2018-09-05T19:46:00.861Z,77.85
2018-09-05T19:48:29.629Z,79.05
2018-09-05T19:51:01.566Z,79.63
2018-09-05T19:53:30.471Z,79.92
2018-09-05T19:55:59.250Z,80.19
2018-09-05T19:58:28.033Z,79.76
2018-09-05T20:00:56.878Z,80.24
2018-09-05T20:03:26.609Z,80.78
2018-09-05T20:05:55.996Z,81.09
2018-09-05T20:08:25.059Z,81.39
2018-09-05T20:10:53.965Z,80.97
2018-09-05T20:13:22.798Z,81.11
2018-09-05T20:15:52.561Z,81.50
2018-09-05T20:18:21.763Z,82.23
2018-09-05T20:20:50.575Z,82.25
2018-09-05T20:23:23.722Z,81.19
2018-09-05T20:25:52.836Z,83.16
2018-09-05T20:28:21.708Z,83.82
2018-09-05T20:30:50.694Z,83.98
2018-09-05T20:33:19.500Z,83.45
2018-09-05T20:35:48.253Z,82.75
2018-09-05T20:38:17.051Z,82.51
2018-09-05T20:40:46.017Z,82.44
2018-09-05T20:43:15.409Z,83.95
2018-09-05T20:45:44.503Z,84.69
2018-09-05T20:48:13.324Z,84.29
2018-09-05T20:50:42.195Z,84.94
2018-09-05T20:53:11.142Z,84.74
2018-09-05T20:55:40.069Z,84.44
2018-09-05T20:58:10.709Z,84.33
2018-09-05T21:00:39.512Z,84.87
2018-09-05T21:03:08.300Z,85.46
2018-09-05T21:05:37.149Z,84.62
2018-09-05T21:08:06.320Z,85.20
2018-09-05T21:10:35.101Z,85.78
2018-09-05T21:13:05.666Z,86.06
2018-09-05T21:15:35.168Z,86.42
2018-09-05T21:18:04.212Z,86.57
2018-09-05T21:20:33.567Z,86.49
2018-09-05T21:23:02.770Z,86.12
2018-09-05T21:25:32.608Z,86.82
2018-09-05T21:28:01.602Z,86.53
2018-09-05T21:30:30.640Z,87.42
2018-09-05T21:32:59.755Z,87.94
2018-09-05T21:35:28.512Z,86.88
2018-09-05T21:37:57.518Z,86.81
2018-09-05T21:40:26.334Z,87.43
2018-09-05T21:42:55.088Z,87.57
2018-09-05T21:45:23.905Z,87.58
2018-09-05T21:47:52.701Z,87.72
2018-09-05T21:50:21.470Z,88.03
2018-09-05T21:52:50.335Z,86.80
2018-09-05T21:55:19.260Z,86.89
2018-09-05T21:57:48.141Z,87.03
2018-09-05T22:00:16.950Z,87.60
2018-09-05T22:02:45.728Z,87.28
2018-09-05T22:05:14.534Z,87.86
2018-09-05T22:07:43.341Z,88.44
2018-09-05T22:10:12.184Z,88.17
2018-09-05T22:12:40.948Z,88.23
2018-09-05T22:15:09.761Z,88.66
2018-09-05T22:17:39.196Z,88.70
2018-09-05T22:20:08.685Z,88.36
2018-09-05T22:22:37.591Z,88.62
2018-09-05T22:25:06.518Z,88.28
2018-09-05T22:27:35.295Z,88.79
2018-09-05T22:30:04.221Z,88.80
2018-09-05T22:32:33.064Z,89.55
2018-09-05T22:35:01.816Z,88.13
2018-09-05T22:37:30.705Z,88.41
2018-09-05T22:39:59.478Z,88.66
2018-09-05T22:42:30.373Z,88.80
2018-09-05T22:45:10.201Z,88.58
2018-09-05T22:47:54.201Z,88.46
2018-09-05T22:51:44.770Z,88.31
2018-09-05T22:56:38.485Z,89.03
2018-09-05T22:59:26.082Z,90.48
2018-09-05T23:02:07.822Z,90.92
2018-09-05T23:05:51.664Z,90.49
2018-09-05T23:08:37.740Z,89.23
2018-09-05T23:11:18.051Z,89.67
2018-09-05T23:13:58.248Z,89.51
2018-09-05T23:16:38.370Z,89.13
2018-09-05T23:19:44.471Z,89.15
2018-09-05T23:22:13.222Z,88.77
2018-09-05T23:24:41.997Z,89.03
2018-09-05T23:27:10.789Z,89.03
2018-09-05T23:29:39.602Z,88.87
2018-09-05T23:32:08.349Z,89.03
2018-09-05T23:34:37.144Z,89.21
2018-09-05T23:37:05.931Z,89.59
2018-09-05T23:39:34.690Z,89.36
2018-09-05T23:42:03.488Z,89.22
2018-09-05T23:44:32.265Z,89.86
2018-09-05T23:47:01.095Z,90.03
2018-09-05T23:49:29.973Z,89.38
2018-09-05T23:51:59.749Z,89.93
2018-09-05T23:54:28.702Z,90.15
2018-09-05T23:56:57.581Z,90.17
2018-09-05T23:59:26.365Z,89.83
